Auburn, Iowa
Current Conditions -  °F | °C
As of 7:35 AM on Friday 19 Dec 2014 (Local Time) from KCIN Reporting Station
Haze Haze  
Wind Chill: -4°   Ceiling: 600
Heat Index: -1°   Visibility: 3mi
Dew Point: -1°   Wind: 6mph
Humidity: 100%   Direction: 180°S
Pressure: 30.22"   Gusts: NA
Location:  42.25°N, 94.88°W
Report Text: KCIN 191335Z AUTO 18005KT 3SM BR OVC006 M01/M01 A3022 RMK AO2
Loading
Personal Weather Stations






























Interactive Weather Map New forecast layout! Learn more

10-Day Weather Forecast

Advertisements
Track Severe Weather on mobile